createdAt,value
2019-05-07T00:08:32.299Z,1.00
2019-05-07T00:18:35.389Z,0.90
2019-05-07T00:28:38.339Z,0.70
2019-05-07T00:38:44.160Z,0.30
2019-05-07T00:48:47.152Z,-0.20
2019-05-07T00:58:52.517Z,-0.40
2019-05-07T01:08:55.004Z,-1.00
2019-05-07T01:18:57.976Z,-1.40
2019-05-07T01:29:02.967Z,-1.60
2019-05-07T01:39:06.570Z,-1.90
2019-05-07T01:49:09.628Z,-2.00
2019-05-07T01:59:12.610Z,-2.10
2019-05-07T02:09:28.709Z,-2.40
2019-05-07T02:19:32.950Z,-2.50
2019-05-07T02:29:38.178Z,-2.50
2019-05-07T02:39:49.621Z,-2.70
2019-05-07T02:49:57.266Z,-2.80
2019-05-07T03:00:04.052Z,-2.50
2019-05-07T03:10:05.984Z,-2.80
2019-05-07T03:20:14.016Z,-3.30
2019-05-07T03:30:45.598Z,-3.00
2019-05-07T03:40:47.893Z,-3.10
2019-05-07T03:50:52.803Z,-3.20
2019-05-07T04:00:55.731Z,-2.10
2019-05-07T04:10:58.684Z,-2.20
2019-05-07T04:21:03.707Z,-2.40
2019-05-07T04:31:06.594Z,-1.30
2019-05-07T04:41:09.649Z,-0.50
2019-05-07T04:51:15.048Z,-0.40
2019-05-07T05:01:19.946Z,-0.40
2019-05-07T05:11:23.714Z,0.10
2019-05-07T05:21:59.077Z,1.00
2019-05-07T05:32:02.403Z,1.30
2019-05-07T05:42:14.670Z,2.50
2019-05-07T05:52:32.846Z,2.50
2019-05-07T06:02:54.747Z,4.80
2019-05-07T06:13:09.879Z,8.70
2019-05-07T06:23:27.985Z,11.30
2019-05-07T06:33:32.415Z,13.30
2019-05-07T06:43:43.357Z,16.50
2019-05-07T06:53:46.328Z,18.70
2019-05-07T07:04:17.991Z,20.30
2019-05-07T07:14:22.742Z,22.10
2019-05-07T07:24:25.865Z,22.00
2019-05-07T07:34:33.293Z,23.80
2019-05-07T07:44:36.325Z,25.00
2019-05-07T07:54:39.310Z,27.70
2019-05-07T08:04:42.656Z,27.90
2019-05-07T08:14:45.778Z,27.60
2019-05-07T08:24:48.769Z,28.50
2019-05-07T08:35:03.449Z,24.40
2019-05-07T08:45:25.050Z,18.50
2019-05-07T08:55:28.185Z,20.10
2019-05-07T09:05:32.370Z,21.60
2019-05-07T09:15:35.688Z,25.50
2019-05-07T09:25:47.382Z,22.00
2019-05-07T09:35:52.843Z,19.60
2019-05-07T09:45:56.085Z,19.40
2019-05-07T09:55:59.079Z,17.50
2019-05-07T10:06:03.413Z,16.90
2019-05-07T10:16:07.746Z,16.40
2019-05-07T10:26:12.178Z,20.80
2019-05-07T10:36:15.470Z,26.10
2019-05-07T10:46:37.691Z,28.00
2019-05-07T10:56:41.905Z,23.10
2019-05-07T11:06:45.173Z,21.00
2019-05-07T11:17:07.727Z,22.50
2019-05-07T11:27:11.886Z,22.20
2019-05-07T11:37:15.080Z,23.10
2019-05-07T11:47:24.653Z,27.70
2019-05-07T11:57:27.644Z,29.80
2019-05-07T12:07:32.616Z,24.90
2019-05-07T12:17:35.646Z,21.70
2019-05-07T12:27:39.166Z,19.70
2019-05-07T12:37:42.825Z,17.50
2019-05-07T12:47:47.134Z,16.30
2019-05-07T12:57:51.874Z,14.60
2019-05-07T13:07:55.044Z,14.20
2019-05-07T13:17:57.996Z,13.70
2019-05-07T13:28:02.677Z,13.40
2019-05-07T13:38:24.140Z,13.40
2019-05-07T13:48:27.295Z,13.80
2019-05-07T13:58:32.745Z,13.40
2019-05-07T14:08:38.010Z,13.10
2019-05-07T14:18:41.002Z,13.10
2019-05-07T14:28:43.971Z,13.40
2019-05-07T14:38:48.461Z,13.40
2019-05-07T14:48:52.080Z,13.30
2019-05-07T14:58:55.735Z,13.40
2019-05-07T15:08:58.831Z,13.80
2019-05-07T15:19:02.558Z,13.60
2019-05-07T15:29:13.368Z,13.50
2019-05-07T15:39:16.401Z,14.60
2019-05-07T15:49:21.545Z,14.90
2019-05-07T15:59:24.543Z,15.10
2019-05-07T16:09:42.642Z,14.40
2019-05-07T16:19:47.583Z,14.10
2019-05-07T16:29:52.507Z,13.90
2019-05-07T16:39:55.487Z,13.60
2019-05-07T16:49:59.260Z,13.70
2019-05-07T17:00:03.228Z,12.80
2019-05-07T17:10:06.660Z,12.60
2019-05-07T17:20:12.688Z,12.50
2019-05-07T17:30:16.041Z,12.10
2019-05-07T17:40:19.109Z,12.00
2019-05-07T17:50:26.953Z,12.00
2019-05-07T18:00:30.082Z,11.70
2019-05-07T18:10:35.206Z,11.40
2019-05-07T18:20:38.427Z,10.90
2019-05-07T18:30:41.560Z,10.30
2019-05-07T18:40:44.594Z,9.70
2019-05-07T18:50:47.587Z,9.00
2019-05-07T19:00:54.286Z,8.30
2019-05-07T19:10:57.681Z,8.00
2019-05-07T19:21:00.788Z,7.60
2019-05-07T19:31:05.111Z,7.40
2019-05-07T19:41:12.119Z,7.20
2019-05-07T19:51:14.988Z,7.10
2019-05-07T20:01:22.829Z,7.20
2019-05-07T20:11:37.406Z,7.20
2019-05-07T20:21:40.478Z,7.40
2019-05-07T20:31:43.508Z,7.00
2019-05-07T20:41:46.515Z,6.90
2019-05-07T20:51:49.539Z,7.00
2019-05-07T21:01:52.771Z,6.90
2019-05-07T21:11:55.832Z,6.90
2019-05-07T21:21:58.832Z,6.80
2019-05-07T21:32:03.261Z,6.60
2019-05-07T21:42:06.573Z,6.20
2019-05-07T21:52:09.514Z,6.00
2019-05-07T22:02:18.278Z,5.80
2019-05-07T22:12:22.580Z,5.60
2019-05-07T22:22:25.726Z,5.50
2019-05-07T22:32:36.734Z,5.70
2019-05-07T22:42:39.744Z,5.60
2019-05-07T22:52:42.805Z,5.50
2019-05-07T23:02:45.799Z,5.30
2019-05-07T23:12:48.771Z,5.10
2019-05-07T23:22:52.077Z,4.90
2019-05-07T23:32:55.179Z,5.00
2019-05-07T23:43:02.897Z,5.30
2019-05-07T23:53:05.797Z,5.40
